Time;durP1;ratioP1;P1;durP2;ratioP2;P2;SDS_P1;SDS_P2;PMS_P1;PMS_P2;Temp;Humidity;BMP_temperature;BMP_pressure;BME280_temperature;BME280_humidity;BME280_pressure;Samples;Min_cycle;Max_cycle;Signal;HPM_P1;HPM_P2
2023/08/11 00:00:37;;;;;;;11.15;7.72;;;;;;;16.73;100.00;101939.38;4986705;28;20053;-81
2023/08/11 00:03:06;;;;;;;11.57;8.27;;;;;;;16.77;100.00;101955.16;4988832;28;20048;-80
2023/08/11 00:05:39;;;;;;;10.25;8.18;;;;;;;16.81;100.00;101958.84;4980626;28;20550;-80
2023/08/11 00:08:05;;;;;;;12.65;7.25;;;;;;;16.74;100.00;101953.13;4986945;28;20125;-80
2023/08/11 00:10:35;;;;;;;10.95;7.55;;;;;;;16.80;100.00;101957.25;4978434;28;20460;-81
2023/08/11 00:13:01;;;;;;;10.45;7.20;;;;;;;16.88;100.00;101962.94;4981823;28;20026;-80
2023/08/11 00:15:31;;;;;;;11.52;7.68;;;;;;;16.83;100.00;101966.94;4973789;28;20511;-80
2023/08/11 00:18:03;;;;;;;12.35;7.75;;;;;;;16.79;100.00;101966.88;4983253;28;20379;-81
2023/08/11 00:20:28;;;;;;;11.18;7.60;;;;;;;16.77;100.00;101966.47;4997719;28;20034;-81
2023/08/11 00:22:54;;;;;;;11.30;7.88;;;;;;;16.75;100.00;101968.88;4988930;28;20027;-80
2023/08/11 00:25:21;;;;;;;11.05;8.15;;;;;;;16.71;100.00;101956.72;4987458;28;20482;-80
2023/08/11 00:27:47;;;;;;;11.35;8.45;;;;;;;16.70;100.00;101957.13;4987211;28;20034;-80
2023/08/11 00:30:12;;;;;;;13.38;8.18;;;;;;;16.66;100.00;101968.44;4986463;28;20037;-80
2023/08/11 00:32:38;;;;;;;16.27;9.25;;;;;;;16.70;100.00;101962.78;4987538;28;20029;-80
2023/08/11 00:35:07;;;;;;;14.38;8.35;;;;;;;16.72;100.00;101949.91;4987502;28;20073;-80
2023/08/11 00:37:33;;;;;;;11.25;8.45;;;;;;;16.73;100.00;101957.16;4983505;28;20088;-80
2023/08/11 00:39:59;;;;;;;11.65;9.75;;;;;;;16.69;100.00;101953.50;4982766;28;20117;-80
2023/08/11 00:42:25;;;;;;;15.18;9.30;;;;;;;16.72;100.00;101958.38;4982904;28;20146;-80
2023/08/11 00:44:51;;;;;;;12.02;8.65;;;;;;;16.73;100.00;101956.34;4987020;28;20441;-80
2023/08/11 00:47:17;;;;;;;13.95;9.80;;;;;;;16.64;100.00;101951.06;4978849;28;20027;-80
2023/08/11 00:49:43;;;;;;;11.13;8.45;;;;;;;16.66;100.00;101952.28;4967631;28;20348;-80
2023/08/11 00:52:09;;;;;;;12.23;8.82;;;;;;;16.58;100.00;101938.50;4981564;28;20026;-81
2023/08/11 00:54:36;;;;;;;12.05;9.00;;;;;;;16.63;100.00;101949.41;4988525;28;20545;-81
2023/08/11 00:57:02;;;;;;;12.43;9.10;;;;;;;16.58;100.00;101941.31;4989630;28;20027;-80
2023/08/11 00:59:28;;;;;;;14.63;8.40;;;;;;;16.70;100.00;101945.81;4987268;28;20080;-81
2023/08/11 01:01:53;;;;;;;17.48;9.70;;;;;;;16.70;100.00;101957.97;4981930;28;20031;-80
2023/08/11 01:04:20;;;;;;;15.52;9.48;;;;;;;16.58;100.00;101944.94;4986767;28;20034;-80
2023/08/11 01:06:50;;;;;;;17.85;10.20;;;;;;;16.61;100.00;101934.84;4987434;28;20033;-81
2023/08/11 01:09:37;;;;;;;14.63;8.25;;;;;;;16.61;100.00;101937.69;4999976;28;20515;-80
2023/08/11 01:12:31;;;;;;;12.35;8.35;;;;;;;16.63;100.00;101935.28;4989444;28;20029;-80
2023/08/11 01:15:10;;;;;;;11.80;8.35;;;;;;;16.49;100.00;101919.06;4985419;28;20051;-81
2023/08/11 01:17:38;;;;;;;11.70;8.60;;;;;;;16.60;100.00;101924.78;4987397;28;20375;-81
2023/08/11 01:20:10;;;;;;;15.65;8.73;;;;;;;16.62;100.00;101925.19;4985962;28;20065;-80
2023/08/11 01:22:38;;;;;;;10.53;8.53;;;;;;;16.58;100.00;101921.53;4987178;28;20038;-80
2023/08/11 01:25:07;;;;;;;18.35;12.00;;;;;;;16.42;100.00;101922.66;4981673;28;20280;-80
2023/08/11 01:27:36;;;;;;;19.45;10.65;;;;;;;16.38;100.00;101912.50;4987352;28;20517;-80
2023/08/11 01:30:05;;;;;;;13.40;9.02;;;;;;;16.43;100.00;101921.44;4986880;28;20027;-80
2023/08/11 01:32:31;;;;;;;12.05;9.10;;;;;;;16.48;100.00;101925.09;4977918;28;20030;-80
2023/08/11 01:34:57;;;;;;;16.45;10.38;;;;;;;16.44;100.00;101911.75;4986788;28;20076;-80
2023/08/11 01:37:22;;;;;;;16.10;9.35;;;;;;;16.50;100.00;101909.34;4986318;28;20032;-80
2023/08/11 01:39:48;;;;;;;13.10;8.50;;;;;;;16.48;100.00;101917.41;4987374;28;20138;-80
2023/08/11 01:42:16;;;;;;;13.50;9.45;;;;;;;16.42;100.00;101891.56;4989475;28;20109;-80
2023/08/11 01:44:42;;;;;;;13.40;9.38;;;;;;;16.47;100.00;101910.16;5003207;28;20022;-81
2023/08/11 01:47:09;;;;;;;11.40;7.72;;;;;;;16.47;100.00;101910.16;4993394;28;20030;-81
2023/08/11 01:49:35;;;;;;;12.95;9.63;;;;;;;16.52;100.00;101912.59;4990394;28;20479;-81
2023/08/11 01:52:01;;;;;;;10.65;8.48;;;;;;;16.39;100.00;101892.34;4988528;28;20042;-80
2023/08/11 01:54:27;;;;;;;14.93;9.57;;;;;;;16.50;100.00;101911.38;4991690;28;20091;-81
2023/08/11 01:56:54;;;;;;;13.05;8.68;;;;;;;16.47;100.00;101907.34;4996010;28;20022;-81
2023/08/11 01:59:19;;;;;;;10.48;7.95;;;;;;;16.40;100.00;101885.50;4989896;28;20030;-80
2023/08/11 02:01:45;;;;;;;10.32;8.40;;;;;;;16.39;100.00;101881.03;4988320;28;20124;-81
2023/08/11 02:04:11;;;;;;;10.20;8.27;;;;;;;16.37;100.00;101877.78;4986618;28;20096;-81
2023/08/11 02:06:39;;;;;;;11.50;8.10;;;;;;;16.42;100.00;101885.91;4990151;28;20033;-81
2023/08/11 02:09:08;;;;;;;12.73;8.02;;;;;;;16.46;100.00;101898.06;4990057;28;20042;-80
2023/08/11 02:11:37;;;;;;;9.93;7.55;;;;;;;16.38;100.00;101885.06;4987875;28;20150;-80
2023/08/11 02:14:03;;;;;;;14.10;9.55;;;;;;;16.38;100.00;101893.56;4990182;28;20491;-81
2023/08/11 02:16:29;;;;;;;23.17;8.45;;;;;;;16.29;100.00;101883.78;4985511;28;20054;-81
2023/08/11 02:18:54;;;;;;;10.63;7.97;;;;;;;16.39;100.00;101886.69;4987937;28;20034;-81
2023/08/11 02:21:21;;;;;;;11.75;8.30;;;;;;;16.30;100.00;101869.28;4990967;28;20045;-80
2023/08/11 02:23:46;;;;;;;12.82;8.32;;;;;;;16.37;100.00;101877.78;4989074;28;20026;-80
2023/08/11 02:26:13;;;;;;;10.93;7.38;;;;;;;16.38;100.00;101873.78;4989686;28;20487;-81
2023/08/11 02:28:38;;;;;;;11.77;7.88;;;;;;;16.38;100.00;101885.06;4991535;28;20018;-80
2023/08/11 02:31:03;;;;;;;9.35;7.25;;;;;;;16.35;100.00;101874.56;5001772;28;20035;-81
2023/08/11 02:33:30;;;;;;;11.90;7.90;;;;;;;16.24;100.00;101879.31;4989942;28;20018;-80
2023/08/11 02:35:55;;;;;;;10.05;7.78;;;;;;;16.27;100.00;101884.19;4989761;28;20026;-80
2023/08/11 02:38:21;;;;;;;12.27;7.95;;;;;;;16.22;100.00;101882.53;4987600;28;20033;-80
2023/08/11 02:40:46;;;;;;;12.63;8.63;;;;;;;16.22;100.00;101871.25;4989311;28;20482;-80
2023/08/11 02:43:11;;;;;;;12.02;8.82;;;;;;;16.12;100.00;101859.88;4987190;28;20097;-80
2023/08/11 02:45:37;;;;;;;10.20;8.02;;;;;;;16.32;100.00;101880.16;4989081;28;20553;-80
2023/08/11 02:48:02;;;;;;;11.48;7.63;;;;;;;16.21;100.00;101865.97;4988655;28;20030;-80
2023/08/11 02:50:28;;;;;;;12.43;7.78;;;;;;;16.26;100.00;101868.44;4989451;28;20022;-80
2023/08/11 02:52:53;;;;;;;12.50;9.15;;;;;;;16.23;100.00;101872.03;4987611;28;20029;-80
2023/08/11 02:55:19;;;;;;;9.13;7.57;;;;;;;16.24;100.00;101874.47;4999586;28;20041;-80
2023/08/11 02:57:45;;;;;;;9.18;6.78;;;;;;;16.22;100.00;101876.09;4988990;28;20506;-80
2023/08/11 03:00:15;;;;;;;11.02;8.30;;;;;;;16.17;100.00;101871.63;4986066;28;20538;-80
2023/08/11 03:02:47;;;;;;;8.70;7.18;;;;;;;16.23;100.00;101872.03;4989661;28;20022;-80
2023/08/11 03:05:14;;;;;;;12.40;7.63;;;;;;;16.19;100.00;101871.19;4986594;28;20034;-80
2023/08/11 03:07:41;;;;;;;14.95;8.27;;;;;;;16.20;100.00;101878.50;4988880;28;20357;-80
2023/08/11 03:10:07;;;;;;;15.48;9.20;;;;;;;16.17;100.00;101870.78;4988823;28;20037;-80
2023/08/11 03:12:32;;;;;;;13.50;8.20;;;;;;;16.10;100.00;101865.91;4992286;28;20023;-80
2023/08/11 03:14:58;;;;;;;9.80;8.55;;;;;;;15.98;100.00;101861.38;4988260;28;20411;-80
2023/08/11 03:17:23;;;;;;;15.43;9.70;;;;;;;15.88;100.00;101844.38;4981151;28;20386;-80
2023/08/11 03:19:49;;;;;;;15.10;8.40;;;;;;;16.02;100.00;101864.22;4990482;28;20262;-80
2023/08/11 03:22:17;;;;;;;11.60;7.85;;;;;;;16.02;100.00;101861.41;4988533;28;20542;-79
2023/08/11 03:24:44;;;;;;;12.15;9.88;;;;;;;15.99;100.00;101863.00;4987658;28;20508;-80
2023/08/11 03:27:09;;;;;;;10.48;7.45;;;;;;;15.91;100.00;101841.56;4988451;28;20471;-80
2023/08/11 03:29:37;;;;;;;12.20;8.15;;;;;;;15.99;100.00;101867.84;5004145;28;20510;-80
2023/08/11 03:32:03;;;;;;;12.25;8.20;;;;;;;15.98;100.00;101863.38;5001370;28;20031;-80
2023/08/11 03:34:28;;;;;;;9.95;7.03;;;;;;;16.07;100.00;101863.06;5001709;28;20022;-80
2023/08/11 03:36:53;;;;;;;13.38;9.38;;;;;;;16.02;100.00;101850.94;4988807;28;20046;-80
2023/08/11 03:39:19;;;;;;;11.27;7.72;;;;;;;16.04;100.00;101871.13;4980981;28;20030;-80
2023/08/11 03:41:44;;;;;;;12.02;8.25;;;;;;;15.94;100.00;101869.03;4987373;28;20325;-80
2023/08/11 03:44:09;;;;;;;11.52;8.43;;;;;;;16.00;100.00;101863.81;4987648;28;20057;-80
2023/08/11 03:46:35;;;;;;;14.38;8.52;;;;;;;15.95;100.00;101873.44;4994112;28;20026;-80
2023/08/11 03:49:00;;;;;;;14.18;9.85;;;;;;;15.98;100.00;101864.22;4985765;28;20390;-80
2023/08/11 03:51:26;;;;;;;12.70;8.82;;;;;;;15.92;100.00;101857.31;4985921;28;20471;-80
2023/08/11 03:53:51;;;;;;;16.08;8.13;;;;;;;15.90;100.00;101854.06;4984842;28;20030;-80
2023/08/11 03:56:18;;;;;;;12.40;8.75;;;;;;;15.95;100.00;101855.72;4991390;28;20185;-80
2023/08/11 03:58:43;;;;;;;13.02;8.25;;;;;;;16.00;100.00;101859.00;4984346;28;20459;-80
2023/08/11 04:01:09;;;;;;;13.98;8.45;;;;;;;15.99;100.00;101868.66;4982061;28;20069;-80
2023/08/11 04:03:34;;;;;;;13.50;9.20;;;;;;;16.00;100.00;101859.00;4985482;28;20045;-80
2023/08/11 04:06:01;;;;;;;10.02;6.90;;;;;;;16.08;100.00;101857.00;4982726;28;20365;-80
2023/08/11 04:08:27;;;;;;;15.55;9.10;;;;;;;15.91;100.00;101855.66;4980936;28;20059;-80
2023/08/11 04:10:54;;;;;;;12.38;7.90;;;;;;;15.91;100.00;101855.66;4981773;28;20435;-80
2023/08/11 04:13:19;;;;;;;10.02;6.93;;;;;;;15.87;100.00;101839.91;4980381;28;20034;-80
2023/08/11 04:15:46;;;;;;;15.15;7.82;;;;;;;15.93;100.00;101856.09;4976478;28;20054;-80
2023/08/11 04:18:12;;;;;;;10.25;7.32;;;;;;;15.83;100.00;101837.88;4986568;28;20026;-80
2023/08/11 04:20:39;;;;;;;11.15;7.75;;;;;;;15.81;100.00;101842.28;4990190;28;20028;-80
2023/08/11 04:23:05;;;;;;;13.25;8.80;;;;;;;15.96;100.00;101841.19;4983835;28;20033;-80
2023/08/11 04:25:30;;;;;;;14.90;9.27;;;;;;;15.86;100.00;101839.09;4984984;28;20034;-81
2023/08/11 04:27:58;;;;;;;12.18;9.00;;;;;;;15.89;100.00;101841.13;4987363;28;20557;-80
2023/08/11 04:30:24;;;;;;;13.85;9.30;;;;;;;16.02;100.00;101848.09;4987295;28;20026;-80
2023/08/11 04:32:50;;;;;;;13.25;8.27;;;;;;;16.05;100.00;101850.13;4984111;28;20105;-80
2023/08/11 04:35:16;;;;;;;12.45;7.25;;;;;;;16.01;100.00;101849.31;4987713;28;20062;-80
2023/08/11 04:37:41;;;;;;;12.30;8.80;;;;;;;15.83;100.00;101817.28;4990182;28;20066;-80
2023/08/11 04:40:11;;;;;;;11.52;7.93;;;;;;;16.01;100.00;101848.50;4987230;28;20132;-80
2023/08/11 04:42:38;;;;;;;8.48;7.05;;;;;;;15.97;100.00;101847.66;4987043;28;20475;-80
2023/08/11 04:45:03;;;;;;;14.13;11.07;;;;;;;15.94;100.00;101846.44;4987228;28;20248;-80
2023/08/11 04:47:29;;;;;;;11.85;7.93;;;;;;;16.06;100.00;101850.94;4985746;28;20035;-80
2023/08/11 04:49:55;;;;;;;13.88;8.77;;;;;;;15.94;100.00;101842.78;4987268;28;20105;-80
2023/08/11 04:52:20;;;;;;;12.35;8.05;;;;;;;15.92;100.00;101840.38;4986257;28;20026;-80
2023/08/11 04:54:46;;;;;;;13.38;8.77;;;;;;;15.87;100.00;101840.72;4991137;28;20087;-80
2023/08/11 04:57:11;;;;;;;13.55;9.50;;;;;;;15.76;100.00;101826.50;5003419;28;20033;-80
2023/08/11 04:59:36;;;;;;;13.27;8.43;;;;;;;15.83;100.00;101834.22;4987229;28;20470;-80
2023/08/11 05:02:02;;;;;;;12.52;8.68;;;;;;;15.76;100.00;101825.72;4984503;28;20665;-80
2023/08/11 05:04:28;;;;;;;15.13;9.43;;;;;;;15.77;100.00;101822.50;4987093;28;20026;-80
2023/08/11 05:06:53;;;;;;;13.73;8.45;;;;;;;15.82;100.00;101826.97;4986614;28;20026;-80
2023/08/11 05:09:18;;;;;;;13.68;8.55;;;;;;;15.74;100.00;101811.19;4983382;28;20027;-80
2023/08/11 05:11:44;;;;;;;12.80;9.40;;;;;;;15.80;100.00;101820.91;4985290;28;20029;-80
2023/08/11 05:14:09;;;;;;;14.93;10.18;;;;;;;15.78;100.00;101812.00;4983886;28;20388;-80
2023/08/11 05:16:34;;;;;;;10.98;9.15;;;;;;;15.91;100.00;101821.78;4986431;28;20054;-80
2023/08/11 05:19:00;;;;;;;12.20;8.73;;;;;;;15.84;100.00;101804.81;4992426;28;20048;-80
2023/08/11 05:21:25;;;;;;;14.63;10.38;;;;;;;15.95;100.00;101822.63;4992774;28;20029;-80
2023/08/11 05:23:51;;;;;;;15.05;10.15;;;;;;;15.96;100.00;101809.31;4989867;28;20042;-80
2023/08/11 05:26:16;;;;;;;15.77;9.30;;;;;;;15.98;100.00;101816.22;5002749;28;20545;-80
2023/08/11 05:28:45;;;;;;;11.57;8.60;;;;;;;16.05;100.00;101816.25;4991345;28;20026;-80
2023/08/11 05:31:11;;;;;;;14.40;10.43;;;;;;;15.96;100.00;101796.03;4991859;28;20169;-80
2023/08/11 05:33:36;;;;;;;15.85;9.07;;;;;;;16.05;100.00;101810.59;4986005;28;20156;-80
2023/08/11 05:36:02;;;;;;;14.80;10.23;;;;;;;16.01;100.00;101801.28;4990913;28;20080;-80
2023/08/11 05:38:27;;;;;;;17.35;12.07;;;;;;;16.10;100.00;101814.25;5007120;28;20040;-80
2023/08/11 05:40:52;;;;;;;13.90;9.27;;;;;;;16.07;100.00;101795.28;5001359;28;20479;-80
2023/08/11 05:43:18;;;;;;;19.65;10.55;;;;;;;16.10;100.00;101812.25;4990846;28;20121;-80
2023/08/11 05:45:43;;;;;;;12.38;8.80;;;;;;;16.19;100.00;101811.88;4993021;28;20133;-80
2023/08/11 05:48:10;;;;;;;15.15;10.07;;;;;;;16.19;100.00;101803.41;4983778;28;20095;-80
2023/08/11 05:50:35;;;;;;;15.90;11.05;;;;;;;16.30;100.00;101804.31;4989840;28;20034;-80
2023/08/11 05:53:01;;;;;;;16.02;10.02;;;;;;;16.28;100.00;101808.72;4964123;28;20046;-80
2023/08/11 05:55:26;;;;;;;13.20;9.25;;;;;;;16.26;100.00;101792.97;4984100;28;20517;-80
2023/08/11 05:57:52;;;;;;;16.13;10.48;;;;;;;16.40;100.00;101808.38;4990210;28;20025;-80
2023/08/11 06:00:19;;;;;;;18.00;11.70;;;;;;;16.44;100.00;101809.19;4988198;28;20033;-80
2023/08/11 06:02:45;;;;;;;14.05;10.35;;;;;;;16.50;100.00;101806.81;4993645;28;20384;-80
2023/08/11 06:05:15;;;;;;;16.00;10.57;;;;;;;16.51;100.00;101802.78;4989576;28;20033;-80
2023/08/11 06:07:41;;;;;;;20.35;11.77;;;;;;;16.57;100.00;101807.66;4985710;28;20484;-80
2023/08/11 06:10:06;;;;;;;14.57;8.77;;;;;;;16.56;100.00;101805.22;4989342;28;20112;-80
2023/08/11 06:12:32;;;;;;;16.42;9.98;;;;;;;16.56;100.00;101805.22;4990239;28;20026;-80
2023/08/11 06:14:58;;;;;;;12.93;9.85;;;;;;;16.70;100.00;101810.94;4987784;28;20407;-80
2023/08/11 06:17:24;;;;;;;14.05;10.10;;;;;;;16.73;100.00;101812.97;4990404;28;20034;-80
2023/08/11 06:19:49;;;;;;;14.55;9.32;;;;;;;16.71;100.00;101806.09;5005517;28;20454;-80
2023/08/11 06:22:15;;;;;;;16.08;10.38;;;;;;;16.84;100.00;101799.72;4989699;28;20027;-80
2023/08/11 06:24:40;;;;;;;17.67;10.02;;;;;;;16.95;100.00;101813.06;4984728;28;20030;-80
2023/08/11 06:27:06;;;;;;;18.15;11.00;;;;;;;16.92;100.00;101788.44;4988546;28;20026;-80
2023/08/11 06:29:32;;;;;;;12.18;8.05;;;;;;;16.96;100.00;101794.91;4984923;28;20041;-80
2023/08/11 06:31:57;;;;;;;16.35;10.35;;;;;;;17.15;100.00;101803.03;4985779;28;20038;-80
2023/08/11 06:34:22;;;;;;;14.95;10.55;;;;;;;17.12;100.00;101814.31;4988445;28;20023;-80
2023/08/11 06:36:48;;;;;;;13.27;9.35;;;;;;;17.24;100.00;101814.78;4990679;28;20026;-80
2023/08/11 06:39:14;;;;;;;14.23;9.40;;;;;;;17.29;100.00;101827.72;4988765;28;20038;-80
2023/08/11 06:41:40;;;;;;;11.52;8.98;;;;;;;17.24;100.00;101823.28;4989705;28;20073;-80
2023/08/11 06:44:07;;;;;;;12.75;10.38;;;;;;;17.34;100.00;101823.69;4988781;28;20026;-80
2023/08/11 06:46:33;;;;;;;14.27;9.77;;;;;;;17.40;100.00;101824.91;4989399;28;20038;-80
2023/08/11 06:48:58;;;;;;;15.68;9.55;;;;;;;17.44;100.00;101814.41;4987401;28;20145;-80
2023/08/11 06:51:23;;;;;;;18.33;10.85;;;;;;;17.55;100.00;101820.88;4989169;28;20033;-80
2023/08/11 06:53:49;;;;;;;17.60;10.75;;;;;;;17.63;100.00;101814.00;4986364;28;20414;-81
2023/08/11 06:56:14;;;;;;;16.40;10.75;;;;;;;17.78;100.00;101822.50;4991406;28;20028;-81
2023/08/11 06:58:39;;;;;;;16.50;10.38;;;;;;;17.80;100.00;101823.69;4983442;28;20114;-81
2023/08/11 07:01:05;;;;;;;13.50;9.38;;;;;;;17.91;100.00;101825.75;4974165;28;20122;-81
2023/08/11 07:03:33;;;;;;;14.10;9.23;;;;;;;17.82;100.00;101809.16;4985092;28;20109;-81
2023/08/11 07:06:01;;;;;;;13.38;9.82;;;;;;;18.11;100.00;101826.13;4990154;28;20042;-81
2023/08/11 07:08:27;;;;;;;13.18;7.68;;;;;;;18.27;100.00;101832.16;4983002;28;20052;-81
2023/08/11 07:10:52;;;;;;;17.60;8.73;;;;;;;18.33;100.00;101824.88;4984686;28;20482;-81
2023/08/11 07:13:18;;;;;;;14.98;9.75;;;;;;;18.41;100.00;101829.31;4999042;28;20052;-81
2023/08/11 07:15:43;;;;;;;13.07;8.10;;;;;;;18.51;100.00;101835.34;4976263;28;20436;-81
2023/08/11 07:18:10;;;;;;;16.05;8.52;;;;;;;18.54;100.00;101835.34;4983997;28;20085;-81
2023/08/11 07:20:40;;;;;;;20.17;9.13;;;;;;;18.72;100.00;101829.63;5000109;28;20015;-80
2023/08/11 07:23:05;;;;;;;19.80;10.20;;;;;;;18.79;100.00;101820.28;4998631;28;20487;-81
2023/08/11 07:25:31;;;;;;;14.43;8.48;;;;;;;19.08;100.00;101820.94;4981706;28;20023;-81
2023/08/11 07:27:56;;;;;;;11.15;7.13;;;;;;;19.11;100.00;101839.97;4991280;28;20049;-81
2023/08/11 07:30:21;;;;;;;11.43;7.15;;;;;;;18.99;100.00;101848.94;4987754;28;20404;-81
2023/08/11 07:32:47;;;;;;;11.02;7.78;;;;;;;19.12;100.00;101840.78;5005331;28;20113;-81
2023/08/11 07:35:12;;;;;;;13.05;9.60;;;;;;;19.15;100.00;101834.28;4988773;28;20038;-81
2023/08/11 07:37:38;;;;;;;12.45;7.20;;;;;;;19.41;100.00;101836.53;4988820;28;20048;-81
2023/08/11 07:40:04;;;;;;;10.85;6.95;;;;;;;19.42;100.00;101838.16;4986353;28;20088;-81
2023/08/11 07:42:29;;;;;;;13.60;8.10;;;;;;;19.47;100.00;101823.50;4985555;28;20027;-81
2023/08/11 07:44:55;;;;;;;10.80;6.82;;;;;;;19.66;100.00;101819.31;4989927;28;20019;-81
2023/08/11 07:47:20;;;;;;;9.52;7.10;;;;;;;19.86;100.00;101838.69;4987169;28;20022;-81
2023/08/11 07:49:46;;;;;;;11.13;6.60;;;;;;;19.79;100.00;101838.72;4988671;28;20070;-81
2023/08/11 07:52:11;;;;;;;9.95;6.95;;;;;;;19.81;100.00;101820.03;4981885;28;20063;-81
2023/08/11 07:54:37;;;;;;;8.77;6.95;;;;;;;19.99;100.00;101822.72;4990792;28;20526;-81
2023/08/11 07:57:03;;;;;;;14.13;7.22;;;;;;;20.10;100.00;101831.13;4981736;28;20030;-81
2023/08/11 07:59:28;;;;;;;10.45;6.40;;;;;;;20.46;100.00;101831.53;4982140;28;20411;-80
2023/08/11 08:01:53;;;;;;;9.48;6.40;;;;;;;20.44;100.00;101831.16;4984864;28;20084;-80
2023/08/11 08:04:19;;;;;;;10.80;7.15;;;;;;;20.54;100.00;101832.28;4983176;28;20080;-80
2023/08/11 08:06:45;;;;;;;7.80;5.25;;;;;;;20.50;100.00;101812.41;4987512;28;20383;-80
2023/08/11 08:09:14;;;;;;;8.70;5.65;;;;;;;20.57;100.00;101827.78;4994315;28;20050;-80
2023/08/11 08:11:42;;;;;;;9.50;6.18;;;;;;;20.66;100.00;101831.75;4988143;28;20506;-80
2023/08/11 08:14:09;;;;;;;12.98;7.07;;;;;;;20.57;100.00;101830.63;4983904;28;20058;-80
2023/08/11 08:16:34;;;;;;;8.10;5.93;;;;;;;20.79;100.00;101826.31;4983608;28;20050;-81
2023/08/11 08:19:00;;;;;;;9.05;5.45;;;;;;;21.00;100.00;101832.97;4986729;28;20065;-80
2023/08/11 08:21:26;;;;;;;7.82;5.47;;;;;;;20.87;100.00;101816.47;4987393;28;20189;-81
2023/08/11 08:23:51;;;;;;;10.70;5.68;;;;;;;21.31;100.00;101834.53;4987527;28;20033;-80
2023/08/11 08:26:16;;;;;;;10.18;5.40;;;;;;;21.27;100.00;101833.78;5000608;28;20050;-80
2023/08/11 08:28:42;;;;;;;11.10;5.80;;;;;;;21.40;98.79;101841.72;4987674;28;20077;-81
2023/08/11 08:31:07;;;;;;;9.95;5.50;;;;;;;21.26;98.05;101826.47;4987716;28;20542;-81
2023/08/11 08:33:32;;;;;;;8.82;5.38;;;;;;;21.43;100.00;101838.06;4987717;28;20022;-81
2023/08/11 08:35:58;;;;;;;7.80;4.57;;;;;;;21.40;99.30;101838.88;4981951;28;20034;-81
2023/08/11 08:38:23;;;;;;;8.50;5.45;;;;;;;21.56;98.14;101841.91;4981564;28;20044;-81
2023/08/11 08:40:49;;;;;;;8.70;5.93;;;;;;;21.75;98.25;101846.06;4981706;28;20030;-81
2023/08/11 08:43:16;;;;;;;10.38;5.90;;;;;;;21.79;96.67;101846.81;4996739;28;20149;-81
2023/08/11 08:45:43;;;;;;;7.45;4.88;;;;;;;21.80;96.80;101841.91;4995070;28;20026;-81
2023/08/11 08:48:18;;;;;;;12.95;5.68;;;;;;;21.79;96.92;101840.31;4986767;28;20061;-81
2023/08/11 08:50:44;;;;;;;8.57;4.53;;;;;;;21.99;95.62;101826.94;4978521;28;20121;-81
2023/08/11 08:53:10;;;;;;;9.10;5.63;;;;;;;22.21;95.09;101833.03;4985434;28;20483;-81
2023/08/11 08:55:35;;;;;;;8.48;4.75;;;;;;;22.17;95.61;101820.09;4988279;28;20046;-81
2023/08/11 08:58:00;;;;;;;7.90;4.43;;;;;;;22.38;94.79;101807.50;4981626;28;20040;-81
2023/08/11 09:00:26;;;;;;;10.98;5.32;;;;;;;22.52;94.38;101816.59;4987467;28;20029;-81
2023/08/11 09:02:54;;;;;;;8.63;5.30;;;;;;;22.57;93.58;101814.47;4987073;28;20425;-81
2023/08/11 09:05:21;;;;;;;11.82;5.15;;;;;;;22.76;94.65;101827.13;4983117;28;20045;-81
2023/08/11 09:07:46;;;;;;;7.93;4.65;;;;;;;22.47;93.55;101814.25;4987926;28;20145;-81
2023/08/11 09:10:12;;;;;;;9.70;5.07;;;;;;;22.65;92.63;101828.13;4986932;28;20533;-81
2023/08/11 09:12:37;;;;;;;9.57;5.85;;;;;;;22.89;91.47;101828.03;4986822;28;20038;-82
2023/08/11 09:15:09;;;;;;;9.48;5.32;;;;;;;22.84;91.12;101823.66;4986046;28;20104;-82
2023/08/11 09:17:37;;;;;;;13.38;5.60;;;;;;;22.69;92.81;101813.81;4987153;28;20048;-81
2023/08/11 09:20:03;;;;;;;8.43;4.93;;;;;;;22.93;90.45;101817.34;4988335;28;20395;-81
2023/08/11 09:22:32;;;;;;;9.23;4.25;;;;;;;23.47;92.80;101824.72;4987208;28;20018;-81
2023/08/11 09:24:58;;;;;;;10.95;4.88;;;;;;;23.39;89.87;101829.78;4988395;28;20029;-82
2023/08/11 09:27:23;;;;;;;7.10;4.30;;;;;;;23.49;87.85;101822.22;4979630;28;20126;-82
2023/08/11 09:29:50;;;;;;;4.70;3.70;;;;;;;23.63;90.31;101821.06;4985891;28;20084;-82
2023/08/11 09:32:15;;;;;;;6.43;5.22;;;;;;;23.46;87.67;101817.38;4987111;28;20569;-81
2023/08/11 09:34:43;;;;;;;10.15;5.28;;;;;;;23.54;87.37;101798.81;4983343;28;20031;-81
2023/08/11 09:37:09;;;;;;;8.43;4.63;;;;;;;23.89;86.78;101810.63;4987162;28;20038;-81
2023/08/11 09:39:36;;;;;;;9.75;5.13;;;;;;;23.93;86.50;101805.63;4981683;28;20074;-81
2023/08/11 09:42:03;;;;;;;5.95;4.90;;;;;;;24.13;86.78;101817.72;4984453;28;20057;-82
2023/08/11 09:44:29;;;;;;;7.45;4.45;;;;;;;23.86;87.95;101808.66;4985400;28;20019;-82
2023/08/11 09:46:55;;;;;;;10.50;4.78;;;;;;;23.65;85.80;101807.91;4988395;28;20027;-82
2023/08/11 09:49:20;;;;;;;8.00;3.88;;;;;;;23.62;86.43;101811.69;4986518;28;20482;-82
2023/08/11 09:51:49;;;;;;;8.65;5.80;;;;;;;23.79;90.53;101828.88;4983293;28;20033;-83
2023/08/11 09:54:15;;;;;;;8.32;5.07;;;;;;;24.09;85.54;101831.31;4984729;28;20014;-82
2023/08/11 09:56:42;;;;;;;7.97;4.40;;;;;;;24.27;83.46;101810.00;4986996;28;20022;-82
2023/08/11 09:59:16;;;;;;;6.60;4.07;;;;;;;24.74;83.42;101818.88;4988750;28;20034;-82
2023/08/11 10:01:44;;;;;;;8.80;4.57;;;;;;;24.66;81.21;101826.06;4987901;28;20030;-82
2023/08/11 10:04:20;;;;;;;8.18;3.75;;;;;;;24.79;83.30;101825.31;4989440;28;20042;-82
2023/08/11 10:06:56;;;;;;;7.22;4.35;;;;;;;24.87;82.31;101813.19;4991629;28;20079;-82
2023/08/11 10:09:23;;;;;;;12.63;4.97;;;;;;;24.87;80.84;101826.69;4983978;28;20026;-82
2023/08/11 10:11:51;;;;;;;5.38;3.80;;;;;;;25.07;80.90;101833.03;4988816;28;20670;-82
2023/08/11 10:14:19;;;;;;;10.02;4.10;;;;;;;24.90;80.42;101809.41;4984238;28;20511;-82
2023/08/11 10:16:45;;;;;;;7.25;3.28;;;;;;;25.13;77.28;101828.34;4989017;28;20037;-83
2023/08/11 10:19:12;;;;;;;5.53;3.60;;;;;;;25.33;76.72;101833.88;4986980;28;20042;-82
2023/08/11 10:21:39;;;;;;;6.03;3.67;;;;;;;25.62;76.52;101830.09;4989657;28;20030;-82
2023/08/11 10:24:05;;;;;;;4.70;3.35;;;;;;;25.21;77.07;101840.41;4989564;28;20033;-82
2023/08/11 10:26:31;;;;;;;6.65;3.47;;;;;;;25.10;78.54;101829.25;4987236;28;20030;-82
2023/08/11 10:28:57;;;;;;;7.28;3.40;;;;;;;25.38;78.58;101826.75;4982024;28;20030;-82
2023/08/11 10:31:26;;;;;;;7.53;4.00;;;;;;;25.65;76.73;101817.69;4989515;28;20192;-82
2023/08/11 10:33:53;;;;;;;7.75;4.13;;;;;;;25.73;74.05;101824.78;4976042;28;20074;-82
2023/08/11 10:36:23;;;;;;;5.30;3.80;;;;;;;25.81;74.12;101828.22;4988036;28;20084;-83
2023/08/11 10:39:03;;;;;;;6.07;3.60;;;;;;;25.95;72.76;101826.94;4986750;28;20030;-83
2023/08/11 10:41:29;;;;;;;5.38;4.00;;;;;;;26.01;73.36;101816.47;4987088;28;20034;-83
2023/08/11 10:43:56;;;;;;;5.03;3.50;;;;;;;26.34;74.14;101824.75;4985895;28;20034;-83
2023/08/11 10:46:30;;;;;;;6.75;3.83;;;;;;;25.82;77.59;101804.00;4989327;28;20499;-83
2023/08/11 10:48:59;;;;;;;6.15;3.90;;;;;;;26.23;73.26;101821.47;4989194;28;20033;-83
2023/08/11 10:51:30;;;;;;;5.93;3.55;;;;;;;26.39;73.62;101818.41;4989146;28;20060;-83
2023/08/11 10:54:11;;;;;;;5.50;3.40;;;;;;;26.06;73.46;101821.66;4990052;28;20660;-83
2023/08/11 10:56:41;;;;;;;7.05;3.85;;;;;;;25.93;73.69;101809.38;4993688;28;20030;-83
2023/08/11 10:59:15;;;;;;;5.72;3.95;;;;;;;26.24;74.44;101823.06;4988648;28;20050;-82
2023/08/11 11:01:42;;;;;;;7.43;3.88;;;;;;;26.04;72.87;101814.78;4987038;28;20513;-83
2023/08/11 11:04:09;;;;;;;4.80;3.58;;;;;;;26.54;75.40;101819.50;4984481;28;20026;-82
2023/08/11 11:06:35;;;;;;;5.60;3.67;;;;;;;26.43;74.08;101824.03;4988838;28;20048;-82
2023/08/11 11:09:04;;;;;;;7.95;4.30;;;;;;;26.75;73.20;101820.78;4989038;28;20583;-82